createdAt,value
2018-06-10T00:00:34.135Z,14.30
2018-06-10T00:01:34.121Z,13.00
2018-06-10T00:02:34.107Z,12.90
2018-06-10T00:03:34.093Z,13.80
2018-06-10T00:04:34.079Z,13.80
2018-06-10T00:05:34.067Z,13.30
2018-06-10T00:06:34.054Z,13.10
2018-06-10T00:07:34.036Z,13.60
2018-06-10T00:08:34.028Z,13.90
2018-06-10T00:09:34.024Z,15.80
2018-06-10T00:10:34.003Z,13.60
2018-06-10T00:11:33.988Z,13.20
2018-06-10T00:12:33.978Z,13.20
2018-06-10T00:13:33.962Z,13.90
2018-06-10T00:14:33.951Z,13.70
2018-06-10T00:15:33.937Z,13.50
2018-06-10T00:16:33.921Z,12.90
2018-06-10T00:17:33.911Z,13.50
2018-06-10T00:18:33.891Z,13.10
2018-06-10T00:19:33.884Z,14.40
2018-06-10T00:20:33.869Z,13.30
2018-06-10T00:21:33.862Z,14.20
2018-06-10T00:22:33.840Z,13.70
2018-06-10T00:23:33.824Z,14.00
2018-06-10T00:24:33.816Z,12.50
2018-06-10T00:25:33.796Z,12.90
2018-06-10T00:26:33.784Z,11.60
2018-06-10T00:27:33.775Z,12.20
2018-06-10T00:28:33.760Z,14.10
2018-06-10T00:29:33.744Z,13.70
2018-06-10T00:30:33.737Z,13.30
2018-06-10T00:31:33.722Z,13.00
2018-06-10T00:32:33.703Z,13.00
2018-06-10T00:33:33.704Z,14.30
2018-06-10T00:34:33.681Z,15.00
2018-06-10T00:35:33.678Z,13.50
2018-06-10T00:36:33.653Z,12.40
2018-06-10T00:37:33.648Z,12.10
2018-06-10T00:38:33.621Z,12.00
2018-06-10T00:39:33.616Z,11.90
2018-06-10T00:40:33.600Z,11.90
2018-06-10T00:41:33.593Z,14.50
2018-06-10T00:42:33.572Z,12.20
2018-06-10T00:43:33.557Z,13.10
2018-06-10T00:44:33.545Z,13.90
2018-06-10T00:45:33.535Z,14.20
2018-06-10T00:46:33.519Z,12.60
2018-06-10T00:47:33.504Z,12.60
2018-06-10T00:48:33.489Z,12.20
2018-06-10T00:49:33.477Z,12.10
2018-06-10T00:50:33.466Z,12.50
2018-06-10T00:51:33.450Z,12.20
2018-06-10T00:52:33.436Z,14.00
2018-06-10T00:53:33.422Z,14.70
2018-06-10T00:54:33.407Z,13.50
2018-06-10T00:55:33.387Z,12.40
2018-06-10T00:56:33.377Z,15.80
2018-06-10T00:57:33.368Z,15.50
2018-06-10T00:58:33.355Z,16.70
2018-06-10T00:59:33.342Z,19.10
2018-06-10T01:00:33.331Z,19.00
2018-06-10T01:01:33.313Z,19.50
2018-06-10T01:02:33.295Z,19.80
2018-06-10T01:03:33.282Z,21.90
2018-06-10T01:04:33.286Z,21.20
2018-06-10T01:05:33.277Z,19.60
2018-06-10T01:06:33.240Z,19.70
2018-06-10T01:07:33.228Z,20.10
2018-06-10T01:08:33.209Z,18.90
2018-06-10T01:09:33.204Z,19.30
2018-06-10T01:10:33.190Z,19.40
2018-06-10T01:11:33.176Z,19.30
2018-06-10T01:12:33.160Z,19.30
2018-06-10T01:13:33.147Z,19.80
2018-06-10T01:14:33.137Z,18.60
2018-06-10T01:15:33.123Z,16.10
2018-06-10T01:16:33.107Z,16.90
2018-06-10T01:17:33.087Z,14.90
2018-06-10T01:18:33.076Z,14.20
2018-06-10T01:19:33.062Z,13.20
2018-06-10T01:20:33.051Z,13.40
2018-06-10T01:21:33.034Z,13.80
2018-06-10T01:22:33.036Z,12.90
2018-06-10T01:23:33.005Z,12.10
2018-06-10T01:24:32.991Z,12.60
2018-06-10T01:25:32.978Z,11.30
2018-06-10T01:26:32.966Z,11.70
2018-06-10T01:27:32.950Z,12.00
2018-06-10T01:28:32.938Z,11.80
2018-06-10T01:29:32.920Z,13.20
2018-06-10T01:30:32.910Z,11.80
2018-06-10T01:31:32.893Z,11.60
2018-06-10T01:32:32.878Z,10.80
2018-06-10T01:33:32.867Z,10.40
2018-06-10T01:34:32.849Z,10.40
2018-06-10T01:35:32.839Z,10.00
2018-06-10T01:36:32.822Z,10.10
2018-06-10T01:37:32.806Z,9.90
2018-06-10T01:38:32.792Z,10.60
2018-06-10T01:39:32.778Z,11.50
2018-06-10T01:40:32.769Z,10.70
2018-06-10T01:41:32.748Z,11.10
2018-06-10T01:42:32.734Z,10.70
2018-06-10T01:43:32.721Z,10.90
2018-06-10T01:44:32.706Z,10.30
2018-06-10T01:45:32.688Z,10.40
2018-06-10T01:46:32.679Z,11.30
2018-06-10T01:47:32.664Z,10.70
2018-06-10T01:48:32.651Z,10.80
2018-06-10T01:49:32.635Z,11.20
2018-06-10T01:50:32.621Z,11.80
2018-06-10T01:51:32.607Z,11.40
2018-06-10T01:52:32.589Z,11.50
2018-06-10T01:53:32.579Z,12.30
2018-06-10T01:54:32.563Z,12.60
2018-06-10T01:55:32.561Z,12.70
2018-06-10T01:56:32.547Z,12.20
2018-06-10T01:57:32.522Z,12.20
2018-06-10T01:58:32.506Z,12.70
2018-06-10T01:59:32.494Z,12.40
2018-06-10T02:00:32.478Z,12.80
2018-06-10T02:01:32.463Z,13.40
2018-06-10T02:02:32.449Z,13.10
2018-06-10T02:03:32.433Z,12.60
2018-06-10T02:04:32.418Z,12.70
2018-06-10T02:05:32.409Z,14.00
2018-06-10T02:06:32.392Z,12.90
2018-06-10T02:07:32.374Z,13.60
2018-06-10T02:08:32.361Z,13.00
2018-06-10T02:09:32.347Z,14.40
2018-06-10T02:10:32.332Z,15.20
2018-06-10T02:11:32.318Z,15.50
2018-06-10T02:12:32.301Z,15.20
2018-06-10T02:13:32.287Z,14.80
2018-06-10T02:14:32.268Z,15.20
2018-06-10T02:15:32.259Z,15.80
2018-06-10T02:16:32.244Z,14.20
2018-06-10T02:17:32.229Z,14.90
2018-06-10T02:18:32.219Z,14.20
2018-06-10T02:19:32.204Z,14.50
2018-06-10T02:20:32.180Z,15.30
2018-06-10T02:21:32.179Z,15.60
2018-06-10T02:22:32.155Z,16.30
2018-06-10T02:23:32.160Z,15.20
2018-06-10T02:24:32.129Z,16.40
2018-06-10T02:25:32.109Z,15.10
2018-06-10T02:26:32.094Z,16.30
2018-06-10T02:27:32.086Z,16.10
2018-06-10T02:28:32.072Z,16.20
2018-06-10T02:29:32.051Z,17.00
2018-06-10T02:30:32.055Z,19.40
2018-06-10T02:31:32.025Z,18.40
2018-06-10T02:32:32.004Z,17.40
2018-06-10T02:33:31.991Z,17.80
2018-06-10T02:34:31.990Z,16.60
2018-06-10T02:35:31.969Z,17.40
2018-06-10T02:36:31.948Z,18.00
2018-06-10T02:37:31.932Z,19.30
2018-06-10T02:38:31.942Z,19.40
2018-06-10T02:39:31.902Z,18.80
2018-06-10T02:40:31.895Z,19.50
2018-06-10T02:41:31.881Z,19.90
2018-06-10T02:42:31.877Z,20.30
2018-06-10T02:43:31.859Z,20.00
2018-06-10T02:44:31.840Z,20.20
2018-06-10T02:45:31.827Z,20.40
2018-06-10T02:46:31.816Z,20.50
2018-06-10T02:47:31.804Z,20.80
2018-06-10T02:48:31.779Z,20.60
2018-06-10T02:49:31.759Z,21.70
2018-06-10T02:50:31.746Z,20.90
2018-06-10T02:51:31.740Z,21.90
2018-06-10T02:52:31.719Z,21.80
2018-06-10T02:53:31.709Z,22.10
2018-06-10T02:54:31.694Z,21.00
2018-06-10T02:55:31.677Z,22.10
2018-06-10T02:56:31.665Z,22.70
2018-06-10T02:57:31.641Z,21.80
2018-06-10T02:58:31.634Z,22.40
2018-06-10T02:59:31.613Z,21.90
2018-06-10T03:00:31.595Z,22.60
2018-06-10T03:01:31.594Z,22.60
2018-06-10T03:02:31.575Z,23.30
2018-06-10T03:03:31.561Z,23.70
2018-06-10T03:04:31.542Z,22.50
2018-06-10T03:05:31.528Z,22.30
2018-06-10T03:06:31.519Z,24.00
2018-06-10T03:07:31.500Z,22.80
2018-06-10T03:08:31.486Z,23.70
2018-06-10T03:09:31.473Z,23.60
2018-06-10T03:10:31.460Z,23.90
2018-06-10T03:11:31.448Z,23.50
2018-06-10T03:12:31.429Z,25.10
2018-06-10T03:13:31.413Z,23.80
2018-06-10T03:14:31.398Z,22.80
2018-06-10T03:15:31.384Z,23.00
2018-06-10T03:16:31.372Z,23.70
2018-06-10T03:17:31.362Z,23.20
2018-06-10T03:18:31.348Z,23.30
2018-06-10T03:19:31.329Z,24.10
2018-06-10T03:20:31.311Z,24.10
2018-06-10T03:21:31.292Z,25.50
2018-06-10T03:22:31.278Z,23.40
2018-06-10T03:23:31.262Z,24.80
2018-06-10T03:24:31.249Z,24.60
2018-06-10T03:25:31.256Z,26.20
2018-06-10T03:26:31.289Z,24.90
2018-06-10T03:27:31.212Z,26.00
2018-06-10T03:28:31.184Z,26.20
2018-06-10T03:29:31.174Z,26.70
2018-06-10T03:30:31.172Z,26.10
2018-06-10T03:31:31.148Z,26.80
2018-06-10T03:32:31.138Z,27.10
2018-06-10T03:33:31.122Z,26.00
2018-06-10T03:34:31.100Z,27.70
2018-06-10T03:35:31.085Z,26.60
2018-06-10T03:36:31.075Z,28.70
2018-06-10T03:37:31.056Z,27.50
2018-06-10T03:38:31.043Z,26.90
2018-06-10T03:39:31.034Z,25.50
2018-06-10T03:40:31.017Z,27.30
2018-06-10T03:41:31.015Z,26.90
2018-06-10T03:42:30.998Z,26.70
2018-06-10T03:43:30.976Z,26.20
2018-06-10T03:44:30.963Z,26.30
2018-06-10T03:45:30.946Z,27.10
2018-06-10T03:46:30.929Z,26.80
2018-06-10T03:47:30.916Z,27.70
2018-06-10T03:48:30.913Z,27.40
2018-06-10T03:49:30.887Z,25.60
2018-06-10T03:50:30.873Z,26.20
2018-06-10T03:51:30.857Z,27.30
2018-06-10T03:52:30.842Z,26.90
2018-06-10T03:53:30.820Z,26.10
2018-06-10T03:54:30.811Z,25.60
2018-06-10T03:55:30.795Z,26.60
2018-06-10T03:56:30.780Z,27.00
2018-06-10T03:57:30.762Z,25.90
2018-06-10T03:58:30.754Z,26.30
2018-06-10T03:59:30.737Z,26.80
2018-06-10T04:00:30.724Z,25.80
2018-06-10T04:01:30.704Z,26.80
2018-06-10T04:02:30.690Z,25.80
2018-06-10T04:03:30.678Z,26.00
2018-06-10T04:04:30.661Z,25.60
2018-06-10T04:05:30.646Z,25.40
2018-06-10T04:06:30.632Z,25.90
2018-06-10T04:07:30.627Z,26.80
2018-06-10T04:08:30.610Z,26.40
2018-06-10T04:09:30.589Z,24.60
2018-06-10T04:10:30.572Z,25.40
2018-06-10T04:11:30.558Z,26.10
2018-06-10T04:12:30.540Z,25.90
2018-06-10T04:13:30.531Z,25.30
2018-06-10T04:14:30.516Z,24.90
2018-06-10T04:15:30.500Z,25.80
2018-06-10T04:16:30.485Z,25.90
2018-06-10T04:17:30.469Z,26.30
2018-06-10T04:18:30.455Z,25.10
2018-06-10T04:19:30.441Z,25.40
2018-06-10T04:20:30.429Z,26.10
2018-06-10T04:21:30.412Z,26.30
2018-06-10T04:22:30.459Z,25.90
2018-06-10T04:23:30.387Z,27.80
2018-06-10T04:24:30.373Z,28.00
2018-06-10T04:25:30.353Z,26.60
2018-06-10T04:26:30.338Z,27.20
2018-06-10T04:27:30.324Z,27.30
2018-06-10T04:28:30.314Z,27.40
2018-06-10T04:29:30.293Z,26.70
2018-06-10T04:30:30.274Z,26.30
2018-06-10T04:31:30.265Z,28.50
2018-06-10T04:32:30.253Z,27.70
2018-06-10T04:33:30.237Z,27.60
2018-06-10T04:34:30.221Z,31.70
2018-06-10T04:35:30.208Z,28.10
2018-06-10T04:36:30.192Z,27.90
2018-06-10T04:37:30.177Z,28.50
2018-06-10T04:38:30.168Z,27.50
2018-06-10T04:39:30.150Z,28.20
2018-06-10T04:40:30.141Z,29.80
2018-06-10T04:41:30.115Z,29.40
2018-06-10T04:42:30.100Z,32.50
2018-06-10T04:43:30.093Z,29.50
2018-06-10T04:44:30.072Z,29.50
2018-06-10T04:45:30.058Z,30.50
2018-06-10T04:46:30.044Z,29.10
2018-06-10T04:47:30.037Z,30.60
2018-06-10T04:48:30.017Z,28.30
2018-06-10T04:49:30.001Z,27.10
2018-06-10T04:50:29.988Z,27.00
2018-06-10T04:51:29.968Z,27.20
2018-06-10T04:52:29.956Z,27.50
2018-06-10T04:53:29.945Z,26.80
2018-06-10T04:54:29.930Z,28.40
2018-06-10T04:55:29.909Z,30.10
2018-06-10T04:56:29.898Z,30.90
2018-06-10T04:57:29.894Z,28.80
2018-06-10T04:58:29.877Z,26.60
2018-06-10T04:59:29.858Z,28.20
2018-06-10T05:00:29.844Z,26.50
2018-06-10T05:01:29.822Z,25.50
2018-06-10T05:02:29.809Z,25.50
2018-06-10T05:03:29.804Z,25.30
2018-06-10T05:04:29.783Z,24.50
2018-06-10T05:05:29.791Z,24.90
2018-06-10T05:06:29.756Z,23.80
2018-06-10T05:07:29.748Z,22.40
2018-06-10T05:08:29.722Z,22.30
2018-06-10T05:09:29.709Z,19.40
2018-06-10T05:10:29.700Z,20.30
2018-06-10T05:11:29.678Z,20.20
2018-06-10T05:12:29.667Z,19.10
2018-06-10T05:13:29.660Z,17.30
2018-06-10T05:14:29.638Z,20.70
2018-06-10T05:15:29.637Z,15.50
2018-06-10T05:16:29.614Z,16.70
2018-06-10T05:17:29.597Z,15.00
2018-06-10T05:18:29.586Z,14.70
2018-06-10T05:19:29.570Z,14.80
2018-06-10T05:20:29.554Z,15.50
2018-06-10T05:21:29.542Z,13.60
2018-06-10T05:22:29.527Z,13.30
2018-06-10T05:23:29.512Z,13.80
2018-06-10T05:24:29.497Z,14.10
2018-06-10T05:25:29.478Z,13.90
2018-06-10T05:26:29.470Z,13.00
2018-06-10T05:27:29.457Z,14.50
2018-06-10T05:28:29.432Z,13.80
2018-06-10T05:29:29.426Z,14.00
2018-06-10T05:30:29.406Z,12.10
2018-06-10T05:31:29.395Z,14.10
2018-06-10T05:32:29.381Z,14.80
2018-06-10T05:33:29.370Z,13.60
2018-06-10T05:34:29.358Z,13.40
2018-06-10T05:35:29.343Z,13.00
2018-06-10T05:36:29.325Z,14.00
2018-06-10T05:37:29.312Z,14.20
2018-06-10T05:38:29.304Z,12.60
2018-06-10T05:39:29.292Z,11.90
2018-06-10T05:40:29.264Z,13.40
2018-06-10T05:41:29.254Z,12.00
2018-06-10T05:42:29.237Z,11.90
2018-06-10T05:43:29.217Z,12.80
2018-06-10T05:44:29.211Z,12.60
2018-06-10T05:45:29.191Z,12.00
2018-06-10T05:46:29.183Z,11.60
2018-06-10T05:47:29.165Z,13.70
2018-06-10T05:48:29.153Z,11.50
2018-06-10T05:49:29.149Z,12.00
2018-06-10T05:50:29.126Z,12.00
2018-06-10T05:51:29.112Z,10.40
2018-06-10T05:52:29.095Z,11.50
2018-06-10T05:53:29.092Z,11.40
2018-06-10T05:54:29.069Z,10.30
2018-06-10T05:55:29.051Z,10.80
2018-06-10T05:56:29.032Z,10.90
2018-06-10T05:57:29.020Z,10.30
2018-06-10T05:58:29.003Z,10.10
2018-06-10T05:59:28.990Z,11.10
2018-06-10T06:00:28.979Z,10.30
2018-06-10T06:01:28.979Z,10.90
2018-06-10T06:02:28.952Z,10.50
2018-06-10T06:03:28.939Z,10.60
2018-06-10T06:04:28.924Z,10.80
2018-06-10T06:05:28.912Z,10.80
2018-06-10T06:06:28.895Z,10.20
2018-06-10T06:07:28.884Z,10.60
2018-06-10T06:08:28.862Z,10.00
2018-06-10T06:09:28.855Z,10.40
2018-06-10T06:10:28.841Z,11.00
2018-06-10T06:11:28.826Z,10.40
2018-06-10T06:12:28.801Z,10.20
2018-06-10T06:13:28.795Z,10.70
2018-06-10T06:14:28.777Z,11.10
2018-06-10T06:15:28.772Z,10.90
2018-06-10T06:16:28.770Z,10.00
2018-06-10T06:17:28.738Z,11.00
2018-06-10T06:18:28.722Z,10.90
2018-06-10T06:19:28.713Z,11.60
2018-06-10T06:20:28.697Z,11.60
2018-06-10T06:21:28.687Z,10.90
2018-06-10T06:22:28.670Z,10.90
2018-06-10T06:23:28.656Z,12.20
2018-06-10T06:24:28.654Z,11.10
2018-06-10T06:25:28.623Z,11.50
2018-06-10T06:26:28.620Z,11.60
2018-06-10T06:27:28.664Z,11.10
2018-06-10T06:28:28.588Z,11.10
2018-06-10T06:29:28.574Z,13.20
2018-06-10T06:30:28.567Z,11.50
2018-06-10T06:31:28.555Z,11.30
2018-06-10T06:32:28.535Z,12.30
2018-06-10T06:33:28.528Z,11.70
2018-06-10T06:34:28.515Z,11.80
2018-06-10T06:35:28.493Z,11.80
2018-06-10T06:36:28.491Z,12.40
2018-06-10T06:37:28.473Z,12.40
2018-06-10T06:38:28.455Z,12.90
2018-06-10T06:39:28.455Z,12.90
2018-06-10T06:40:28.440Z,12.60
2018-06-10T06:41:28.441Z,12.50
2018-06-10T06:42:28.409Z,12.00
2018-06-10T06:43:28.402Z,15.40
2018-06-10T06:44:28.383Z,12.90
2018-06-10T06:45:28.372Z,13.10
2018-06-10T06:46:28.364Z,12.50
2018-06-10T06:47:28.351Z,12.10
2018-06-10T06:48:28.338Z,12.10
2018-06-10T06:49:28.326Z,12.00
2018-06-10T06:50:28.321Z,13.00
2018-06-10T06:51:28.302Z,12.30
2018-06-10T06:52:28.327Z,12.70
2018-06-10T06:53:28.278Z,13.60
2018-06-10T06:54:28.256Z,12.20
2018-06-10T06:55:28.250Z,13.10
2018-06-10T06:56:28.232Z,13.70
2018-06-10T06:57:28.224Z,12.50
2018-06-10T06:58:28.214Z,13.00
2018-06-10T06:59:28.202Z,15.40
2018-06-10T07:00:28.198Z,14.20
2018-06-10T07:01:28.193Z,13.90
2018-06-10T07:02:28.164Z,13.50
2018-06-10T07:03:28.161Z,13.50
2018-06-10T07:04:28.152Z,13.40
2018-06-10T07:05:28.125Z,14.80
2018-06-10T07:06:28.120Z,15.10
2018-06-10T07:07:28.106Z,15.00
2018-06-10T07:08:28.094Z,14.90
2018-06-10T07:09:28.085Z,14.90
2018-06-10T07:10:28.090Z,14.40
2018-06-10T07:11:28.057Z,14.70
2018-06-10T07:12:28.054Z,16.40
2018-06-10T07:13:28.048Z,15.60
2018-06-10T07:14:28.030Z,16.20
2018-06-10T07:15:28.019Z,16.10
2018-06-10T07:16:28.008Z,15.90
2018-06-10T07:17:27.996Z,17.20
2018-06-10T07:18:28.198Z,19.70
2018-06-10T07:19:27.984Z,20.70
2018-06-10T07:20:27.998Z,21.20
2018-06-10T07:21:27.961Z,20.00
2018-06-10T07:22:28.117Z,23.10
2018-06-10T07:23:28.195Z,25.00
2018-06-10T07:24:28.026Z,25.80
2018-06-10T07:25:27.956Z,23.40
2018-06-10T07:26:27.908Z,21.70
2018-06-10T07:27:28.068Z,22.40
2018-06-10T07:28:27.959Z,22.90
2018-06-10T07:29:27.872Z,22.00
2018-06-10T07:30:27.933Z,22.00
2018-06-10T07:31:27.830Z,22.10
2018-06-10T07:32:28.054Z,21.30
2018-06-10T07:33:27.838Z,21.50
2018-06-10T07:34:27.828Z,22.70
2018-06-10T07:35:27.785Z,21.90
2018-06-10T07:36:27.788Z,24.60
2018-06-10T07:37:27.764Z,27.70
2018-06-10T07:38:27.754Z,24.00
2018-06-10T07:39:27.874Z,24.50
2018-06-10T07:40:27.910Z,25.80
2018-06-10T07:41:28.004Z,24.20
2018-06-10T07:42:27.949Z,25.20
2018-06-10T07:43:27.871Z,25.00
2018-06-10T07:44:27.919Z,23.00
2018-06-10T07:45:27.838Z,23.30
2018-06-10T07:46:27.661Z,23.80
2018-06-10T07:47:27.640Z,24.50
2018-06-10T07:48:27.631Z,26.10
2018-06-10T07:49:27.614Z,23.40
2018-06-10T07:50:27.602Z,22.10
2018-06-10T07:51:27.590Z,23.30
2018-06-10T07:52:27.583Z,22.30
2018-06-10T07:53:27.573Z,20.20
2018-06-10T07:54:27.554Z,20.70
2018-06-10T07:55:27.546Z,17.70
2018-06-10T07:56:27.554Z,19.20
2018-06-10T07:57:27.525Z,18.10
2018-06-10T07:58:27.512Z,19.20
2018-06-10T07:59:27.502Z,19.40
2018-06-10T08:00:27.487Z,20.00
2018-06-10T08:01:27.474Z,18.10
2018-06-10T08:02:27.459Z,18.90
2018-06-10T08:03:27.454Z,16.30
2018-06-10T08:04:27.439Z,16.80
2018-06-10T08:05:27.485Z,16.30
2018-06-10T08:06:27.413Z,16.50
2018-06-10T08:07:27.407Z,16.70
2018-06-10T08:08:27.396Z,16.50
2018-06-10T08:09:27.389Z,16.30
2018-06-10T08:10:27.373Z,16.70
2018-06-10T08:11:27.364Z,16.20
2018-06-10T08:12:27.347Z,16.70
2018-06-10T08:13:27.338Z,16.00
2018-06-10T08:14:27.322Z,15.90
2018-06-10T08:15:27.319Z,16.20
2018-06-10T08:16:27.304Z,17.00
2018-06-10T08:17:27.293Z,17.20
2018-06-10T08:18:27.280Z,19.70
2018-06-10T08:19:27.272Z,17.70
2018-06-10T08:20:27.257Z,17.70
2018-06-10T08:21:27.248Z,17.90
2018-06-10T08:22:27.243Z,17.10
2018-06-10T08:23:27.229Z,17.00
2018-06-10T08:24:27.216Z,16.50
2018-06-10T08:25:27.208Z,16.60
2018-06-10T08:26:27.213Z,19.00
2018-06-10T08:27:27.185Z,18.80
2018-06-10T08:28:27.176Z,25.20
2018-06-10T08:29:27.163Z,19.80
2018-06-10T08:30:27.154Z,24.30
2018-06-10T08:31:27.145Z,21.10
2018-06-10T08:32:27.133Z,21.40
2018-06-10T08:33:27.124Z,21.40
2018-06-10T08:34:27.117Z,22.50
2018-06-10T08:35:27.105Z,21.80
2018-06-10T08:36:27.095Z,23.30
2018-06-10T08:37:27.103Z,21.80
2018-06-10T08:38:27.076Z,22.10
2018-06-10T08:39:27.065Z,22.40
2018-06-10T08:40:27.052Z,23.10
2018-06-10T08:41:27.045Z,23.60
2018-06-10T08:42:27.035Z,27.40
2018-06-10T08:43:27.025Z,27.70
2018-06-10T08:44:27.016Z,27.70
2018-06-10T08:45:27.005Z,28.00
2018-06-10T08:46:27.002Z,27.00
2018-06-10T08:47:26.987Z,29.00
2018-06-10T08:48:26.976Z,32.40
2018-06-10T08:49:26.966Z,27.10
2018-06-10T08:50:26.986Z,28.70
2018-06-10T08:51:26.948Z,27.50
2018-06-10T08:52:27.094Z,29.20
2018-06-10T08:53:27.036Z,31.10
2018-06-10T08:54:27.009Z,31.40
2018-06-10T08:55:27.008Z,31.90
2018-06-10T08:56:26.906Z,33.50
2018-06-10T08:57:27.257Z,38.40
2018-06-10T08:58:26.875Z,33.40
2018-06-10T08:59:26.872Z,34.30
2018-06-10T09:00:26.868Z,32.00
2018-06-10T09:01:26.850Z,32.30
2018-06-10T09:02:26.839Z,32.20
2018-06-10T09:03:26.846Z,32.60
2018-06-10T09:04:26.819Z,33.50
2018-06-10T09:05:26.821Z,33.80
2018-06-10T09:06:26.800Z,35.60
2018-06-10T09:07:26.790Z,36.70
2018-06-10T09:08:26.781Z,34.00
2018-06-10T09:09:26.772Z,33.80
2018-06-10T09:10:26.760Z,34.50
2018-06-10T09:11:26.754Z,34.80
2018-06-10T09:12:26.742Z,37.10
2018-06-10T09:13:26.733Z,34.60
2018-06-10T09:14:26.737Z,36.40
2018-06-10T09:15:26.718Z,35.70
2018-06-10T09:16:26.706Z,32.70
2018-06-10T09:17:26.849Z,36.20
2018-06-10T09:18:26.686Z,36.20
2018-06-10T09:19:26.677Z,36.50
2018-06-10T09:20:26.668Z,34.70
2018-06-10T09:21:26.658Z,33.50
2018-06-10T09:22:26.649Z,35.20
2018-06-10T09:23:26.641Z,33.90
2018-06-10T09:24:26.631Z,35.60
2018-06-10T09:25:26.622Z,37.60
2018-06-10T09:26:26.614Z,36.90
2018-06-10T09:27:26.604Z,36.00
2018-06-10T09:28:26.593Z,38.00
2018-06-10T09:29:26.577Z,36.50
2018-06-10T09:30:26.670Z,35.90
2018-06-10T09:31:26.570Z,36.30
2018-06-10T09:32:26.561Z,35.20
2018-06-10T09:33:26.549Z,33.80
2018-06-10T09:34:26.539Z,34.60
2018-06-10T09:35:26.731Z,36.60
2018-06-10T09:36:26.523Z,35.20
2018-06-10T09:37:26.516Z,34.70
2018-06-10T09:38:26.507Z,34.90
2018-06-10T09:39:26.492Z,35.50
2018-06-10T09:40:26.488Z,34.20
2018-06-10T09:41:26.476Z,35.30
2018-06-10T09:42:26.469Z,34.80
2018-06-10T09:43:26.464Z,36.30
2018-06-10T09:44:26.458Z,35.90
2018-06-10T09:45:26.441Z,35.80
2018-06-10T09:46:26.430Z,36.80
2018-06-10T09:47:26.430Z,37.70
2018-06-10T09:48:26.417Z,35.00
2018-06-10T09:49:26.412Z,38.40
2018-06-10T09:50:26.400Z,35.80
2018-06-10T09:51:26.566Z,36.40
2018-06-10T09:52:26.383Z,35.00
2018-06-10T09:53:26.377Z,35.50
2018-06-10T09:54:26.364Z,35.90
2018-06-10T09:55:26.416Z,38.70
2018-06-10T09:56:26.350Z,35.00
2018-06-10T09:57:26.340Z,37.40
2018-06-10T09:58:26.330Z,35.60
2018-06-10T09:59:26.316Z,32.30
2018-06-10T10:00:26.315Z,34.00
2018-06-10T10:01:26.312Z,33.40
2018-06-10T10:02:26.303Z,34.00
2018-06-10T10:03:26.303Z,34.40
2018-06-10T10:04:26.295Z,35.80
2018-06-10T10:05:26.276Z,36.90
2018-06-10T10:06:26.264Z,36.80
2018-06-10T10:07:26.255Z,38.30
2018-06-10T10:08:26.251Z,36.10
2018-06-10T10:09:26.243Z,38.30
2018-06-10T10:10:26.233Z,39.80
2018-06-10T10:11:26.228Z,39.30
2018-06-10T10:12:26.217Z,37.90
2018-06-10T10:13:26.209Z,39.10
2018-06-10T10:14:26.215Z,36.80
2018-06-10T10:15:26.192Z,42.60
2018-06-10T10:16:26.182Z,43.40
2018-06-10T10:17:26.173Z,45.30
2018-06-10T10:18:26.164Z,43.00
2018-06-10T10:19:26.158Z,43.70
2018-06-10T10:20:26.150Z,45.60
2018-06-10T10:21:26.138Z,41.20
2018-06-10T10:22:26.130Z,46.30
2018-06-10T10:23:26.128Z,43.60
2018-06-10T10:24:26.113Z,43.10
2018-06-10T10:25:26.145Z,43.20
2018-06-10T10:26:26.097Z,45.40
2018-06-10T10:27:26.089Z,43.60
2018-06-10T10:28:26.079Z,43.10
2018-06-10T10:29:26.072Z,40.70
2018-06-10T10:30:26.062Z,42.40
2018-06-10T10:31:26.054Z,41.70
2018-06-10T10:32:26.045Z,42.10
2018-06-10T10:33:26.038Z,48.50
2018-06-10T10:34:26.028Z,43.00
2018-06-10T10:35:26.021Z,42.20
2018-06-10T10:36:26.012Z,44.50
2018-06-10T10:37:26.005Z,44.60
2018-06-10T10:38:26.023Z,42.10
2018-06-10T10:39:25.987Z,40.30
2018-06-10T10:40:25.980Z,40.40
2018-06-10T10:41:25.972Z,41.10
2018-06-10T10:42:25.966Z,41.70
2018-06-10T10:43:25.956Z,41.30
2018-06-10T10:44:25.946Z,41.40
2018-06-10T10:45:25.939Z,41.10
2018-06-10T10:46:25.929Z,41.00
2018-06-10T10:47:25.922Z,43.60
2018-06-10T10:48:25.913Z,40.20
2018-06-10T10:49:25.911Z,38.20
2018-06-10T10:50:26.152Z,39.90
2018-06-10T10:51:25.897Z,36.40
2018-06-10T10:52:25.887Z,36.50
2018-06-10T10:53:25.878Z,35.30
2018-06-10T10:54:25.866Z,40.00
2018-06-10T10:55:25.856Z,36.60
2018-06-10T10:56:25.853Z,34.60
2018-06-10T10:57:25.840Z,36.50
2018-06-10T10:58:25.835Z,34.10
2018-06-10T10:59:25.826Z,35.90
2018-06-10T11:00:25.868Z,33.20
2018-06-10T11:01:25.809Z,34.00
2018-06-10T11:02:25.806Z,32.60
2018-06-10T11:03:25.793Z,32.70
2018-06-10T11:04:25.784Z,30.40
2018-06-10T11:05:25.778Z,29.70
2018-06-10T11:06:25.767Z,28.70
2018-06-10T11:07:25.766Z,28.50
2018-06-10T11:08:25.751Z,29.00
2018-06-10T11:09:25.744Z,26.30
2018-06-10T11:10:25.738Z,27.70
2018-06-10T11:11:25.732Z,32.20
2018-06-10T11:12:25.725Z,28.30
2018-06-10T11:13:25.712Z,28.30
2018-06-10T11:14:25.706Z,27.60
2018-06-10T11:15:25.700Z,28.80
2018-06-10T11:16:25.692Z,28.50
2018-06-10T11:17:25.684Z,27.50
2018-06-10T11:18:25.685Z,28.60
2018-06-10T11:19:25.670Z,28.50
2018-06-10T11:20:25.728Z,27.00
2018-06-10T11:21:25.674Z,27.10
2018-06-10T11:22:25.648Z,26.10
2018-06-10T11:23:25.641Z,25.80
2018-06-10T11:24:25.632Z,28.70
2018-06-10T11:25:25.625Z,26.30
2018-06-10T11:26:25.620Z,27.60
2018-06-10T11:27:25.615Z,26.70
2018-06-10T11:28:25.605Z,29.00
2018-06-10T11:29:25.595Z,26.90
2018-06-10T11:30:25.591Z,25.30
2018-06-10T11:31:25.585Z,24.20
2018-06-10T11:32:25.576Z,25.40
2018-06-10T11:33:25.568Z,26.10
2018-06-10T11:34:25.619Z,25.40
2018-06-10T11:35:25.557Z,26.50
2018-06-10T11:36:25.547Z,27.70
2018-06-10T11:37:25.539Z,27.10
2018-06-10T11:38:25.533Z,26.40
2018-06-10T11:39:25.528Z,25.60
2018-06-10T11:40:25.517Z,26.80
2018-06-10T11:41:25.510Z,27.00
2018-06-10T11:42:25.595Z,26.60
2018-06-10T11:43:25.498Z,26.60
2018-06-10T11:44:25.487Z,26.10
2018-06-10T11:45:25.481Z,25.20
2018-06-10T11:46:25.479Z,24.20
2018-06-10T11:47:25.469Z,23.80
2018-06-10T11:48:25.460Z,26.20
2018-06-10T11:49:25.453Z,24.30
2018-06-10T11:50:25.445Z,26.00
2018-06-10T11:51:25.440Z,27.00
2018-06-10T11:52:25.433Z,26.10
2018-06-10T11:53:25.423Z,25.00
2018-06-10T11:54:25.418Z,26.10
2018-06-10T11:55:25.411Z,24.50
2018-06-10T11:56:25.401Z,24.50
2018-06-10T11:57:25.396Z,26.10
2018-06-10T11:58:25.392Z,25.70
2018-06-10T11:59:25.384Z,25.40
2018-06-10T12:00:25.375Z,25.90
2018-06-10T12:01:25.369Z,25.70
2018-06-10T12:02:25.361Z,26.00
2018-06-10T12:03:25.356Z,27.40
2018-06-10T12:04:25.345Z,23.90
2018-06-10T12:05:25.338Z,25.10
2018-06-10T12:06:25.333Z,23.10
2018-06-10T12:07:25.326Z,23.90
2018-06-10T12:08:25.318Z,23.80
2018-06-10T12:09:25.312Z,24.60
2018-06-10T12:10:25.307Z,22.80
2018-06-10T12:11:25.299Z,24.90
2018-06-10T12:12:25.291Z,23.40
2018-06-10T12:13:25.290Z,24.50
2018-06-10T12:14:25.277Z,23.10
2018-06-10T12:15:25.272Z,23.40
2018-06-10T12:16:25.265Z,23.60
2018-06-10T12:17:25.257Z,24.20
2018-06-10T12:18:25.251Z,23.90
2018-06-10T12:19:25.253Z,22.30
2018-06-10T12:20:25.239Z,22.10
2018-06-10T12:21:25.231Z,21.50
2018-06-10T12:22:25.225Z,23.20
2018-06-10T12:23:25.220Z,22.90
2018-06-10T12:24:25.211Z,21.30
2018-06-10T12:25:25.204Z,22.60
2018-06-10T12:26:25.198Z,23.50
2018-06-10T12:27:25.194Z,24.60
2018-06-10T12:28:25.182Z,24.60
2018-06-10T12:29:25.281Z,22.20
2018-06-10T12:30:25.170Z,20.80
2018-06-10T12:31:25.162Z,21.70
2018-06-10T12:32:25.156Z,21.00
2018-06-10T12:33:25.155Z,21.10
2018-06-10T12:34:25.170Z,20.80
2018-06-10T12:35:25.138Z,22.60
2018-06-10T12:36:25.129Z,21.10
2018-06-10T12:37:25.168Z,22.20
2018-06-10T12:38:25.119Z,22.70
2018-06-10T12:39:25.111Z,22.40
2018-06-10T12:40:25.102Z,22.20
2018-06-10T12:41:25.125Z,22.10
2018-06-10T12:42:25.098Z,21.10
2018-06-10T12:43:25.086Z,20.60
2018-06-10T12:44:25.076Z,18.90
2018-06-10T12:45:25.071Z,19.70
2018-06-10T12:46:25.070Z,19.20
2018-06-10T12:47:25.061Z,18.70
2018-06-10T12:48:25.056Z,19.10
2018-06-10T12:49:25.113Z,19.50
2018-06-10T12:50:25.046Z,19.10
2018-06-10T12:51:25.040Z,18.30
2018-06-10T12:52:25.033Z,17.20